METAR Data
IDs: Format: Raw Decoded Include TAF

Data at: 0939 UTC 26 Jan 2020

KRHI 260853Z AUTO 29006KT 10SM OVC006 M02/M03 A2981 RMK AO2 SLP114 T10171028 55000
KRHI 260753Z AUTO 30007KT 10SM OVC008 M02/M03 A2981 RMK AO2 SLP112 T10171033
KRHI 260653Z AUTO 30005KT 10SM OVC008 M02/M03 A2981 RMK AO2 SLP112 T10171033
KRHI 260553Z AUTO 31005KT 10SM OVC008 M02/M03 A2981 RMK AO2 SNE06 SLP114 P0000 60001 T10171033 11006 21017 400111017 51003
KRHI 260503Z AUTO 33006KT 5SM -SN BR OVC008 M02/M03 A2981 RMK AO2 P0000 T10171033
KRHI 260453Z AUTO 31006KT 5SM -SN BR OVC010 M01/M03 A2981 RMK AO2 CIG 008V013 SLP114 P0000 T10111033
KRHI 260440Z AUTO 30005KT 4SM -SN BR OVC010 M02/M03 A2981 RMK AO2 CIG 008V013 P0000 T10171033
KRHI 260411Z AUTO 29004KT 2 1/2SM -SN BR OVC012 M01/M03 A2980 RMK AO2 P0000 T10111033
KRHI 260353Z AUTO 31007KT 4SM -SN BR BKN010 OVC014 M01/M03 A2981 RMK AO2 CIG 007V012 SLP113 P0000 T10111033
KRHI 260342Z AUTO 30003KT 4SM -SN BR OVC010 M01/M03 A2980 RMK AO2 CIG 006V012 P0000 T10111028
KRHI 260327Z AUTO 32005KT 2 1/2SM -SN BR OVC011 M01/M03 A2980 RMK AO2 CIG 006V014 P0000 T10111028
KRHI 260256Z AUTO 32005KT 3SM -SN BR FEW007 BKN011 OVC016 M01/M03 A2980 RMK AO2 P0000 T10111028
KRHI 260253Z AUTO 33005KT 2 1/2SM -SN BR BKN011 OVC016 M01/M03 A2980 RMK AO2 SLP112 P0001 60001 T10111028 58000
KRHI 260239Z AUTO 34004KT 2SM -SN BR OVC013 M01/M03 A2980 RMK AO2 P0000 T10111028
KRHI 260208Z AUTO VRB04KT 1 1/2SM -SN BR BKN010 OVC014 M01/M03 A2980 RMK AO2 P0000 T10111028
KRHI 260200Z AUTO 33004KT 2SM -SN BR BKN010 BKN014 OVC030 M01/M03 A2980 RMK AO2 P0000 T10111028
KRHI 260153Z AUTO 32005KT 2 1/2SM -SN BR BKN009 BKN014 OVC041 M01/M03 A2980 RMK AO2 SLP113 P0000 T10111028
KRHI 260137Z AUTO 32006KT 3SM -SN BR SCT008 BKN014 OVC047 M01/M03 A2980 RMK AO2 P0000 T10111028
KRHI 260113Z AUTO 34007KT 4SM -SN BR SCT008 BKN046 OVC080 M01/M03 A2980 RMK AO2 P0000 T10061028
KRHI 260053Z AUTO 32005KT 4SM -SN BR BKN009 BKN013 OVC044 M01/M03 A2980 RMK AO2 SLP111 P0000 T10061028
KRHI 260051Z AUTO VRB05KT 3SM -SN BR BKN009 BKN013 OVC044 M01/M02 A2980 RMK AO2 P0000
KRHI 260041Z AUTO 32005KT 3SM -SN BR OVC010 M01/M02 A2980 RMK AO2 P0000 T10061022
KRHI 260031Z AUTO 31005KT 3SM -SN BR BKN009 OVC014 M01/M02 A2980 RMK AO2 P0000 T10061022
KRHI 260014Z AUTO 32004KT 2 1/2SM -SN BR BKN009 BKN014 OVC030 M01/M02 A2980 RMK AO2 P0000 T10061022
KRHI 260004Z AUTO 31003KT 3SM -SN BR BKN009 OVC032 M01/M02 A2980 RMK AO2 P0000 T10061022
KRHI 252353Z AUTO 31004KT 2 1/2SM -SN BR BKN008 BKN013 OVC026 M01/M02 A2980 RMK AO2 SNB13 SLP109 P0001 60001 T10061022 10011 21006 53003
KRHI 252344Z AUTO 31003KT 2 1/2SM -SN BR BKN010 OVC026 M01/M02 A2979 RMK AO2 SNB13 P0001 T10061022
KRHI 252332Z AUTO 33004KT 1 3/4SM -SN BR FEW008 BKN013 OVC020 M01/M02 A2979 RMK AO2 SNB13 P0000 T10061022
KRHI 252325Z AUTO 32008KT 2 1/2SM -SN BR BKN013 BKN018 OVC023 M01/M02 A2980 RMK AO2 SNB13 P0000 T10061022
KRHI 252313Z AUTO 32005KT 9SM -SN SCT013 BKN018 OVC050 00/M02 A2979 RMK AO2 SNB13 P0000 T00001022
KRHI 252257Z AUTO 33007KT 10SM SCT013 SCT021 OVC050 00/M03 A2979 RMK AO2 T00001028
KRHI 252253Z AUTO 34007KT 10SM BKN013 BKN021 OVC050 00/M03 A2979 RMK AO2 SNE22 SLP107 P0000 T00001028
KRHI 252214Z AUTO 33005G16KT 3SM -SN BR FEW009 BKN019 OVC024 00/M02 A2978 RMK AO2 P0000 T00001022
KRHI 252153Z AUTO 32007KT 2 1/2SM -SN BR SCT011 BKN017 OVC025 00/M02 A2979 RMK AO2 SNB27 SLP105 P0000 T00001017
KRHI 252150Z AUTO 32009KT 2 1/2SM -SN BR SCT011 BKN017 OVC025 00/M02 A2979 RMK AO2 SNB27 P0000
KRHI 252138Z AUTO 31007KT 4SM -SN BR SCT011 OVC017 01/M02 A2978 RMK AO2 SNB27 P0000 T00061017
KRHI 252053Z AUTO 31007KT 7SM OVC011 01/M02 A2978 RMK AO2 SLP101 T00061017 53000
KRHI 251953Z AUTO 32007KT 280V340 10SM OVC013 01/M01 A2977 RMK AO2 SLP098 T00111011
KRHI 251941Z AUTO 33006KT 10SM BKN009 BKN013 OVC029 01/M02 A2977 RMK AO2 CIG 008V012 T00111017
KRHI 251937Z AUTO 35006KT 10SM SCT011 BKN014 OVC036 01/M02 A2977 RMK AO2 T00111017
KRHI 251922Z AUTO 34005KT 10SM BKN009 BKN013 OVC036 01/M01 A2977 RMK AO2 T00111011
KRHI 251911Z AUTO VRB06KT 10SM SCT009 SCT015 OVC036 01/M01 A2977 RMK AO2 T00111011
KRHI 251901Z AUTO 34005KT 10SM SCT009 BKN014 OVC036 01/M01 A2977 RMK AO2 T00061011
KRHI 251853Z AUTO VRB05KT 7SM BKN009 BKN017 OVC036 01/M01 A2977 RMK AO2 CIG 007V014 SLP100 T00061011
KRHI 251851Z AUTO 33006KT 6SM BR FEW009 BKN016 OVC036 01/M01 A2977 RMK AO2
KRHI 251831Z AUTO 34005KT 9SM SCT009 BKN013 OVC036 01/M01 A2978 RMK AO2 T00061011
KRHI 251753Z AUTO 34005KT 10SM OVC011 01/M02 A2979 RMK AO2 SLP105 60008 T00061017 10006 21011 50001
KRHI 251707Z AUTO VRB06KT 10SM OVC011 00/M02 A2979 RMK AO2 T00001017
KRHI 251653Z AUTO 36005KT 10SM OVC009 00/M02 A2979 RMK AO2 SNE14B32E42 CIG 007V012 SLP107 P0000 T00001017
KRHI 251640Z AUTO 36006KT 6SM -SN BR BKN010 OVC013 00/M02 A2980 RMK AO2 SNE14B32 CIG 006V010 P0000 T00001017
KRHI 251600Z AUTO VRB05KT 5SM -SN BR BKN008 BKN011 OVC055 M01/M02 A2979 RMK AO2 P0000 T10061022
KRHI 251553Z AUTO VRB04KT 2 1/2SM -SN BR BKN006 BKN022 OVC044 M01/M02 A2979 RMK AO2 SLP106 P0001 T10061022
KRHI 251529Z AUTO 34005KT 3/4SM -SN BR BKN006 OVC022 M01/M02 A2979 RMK AO2 P0001 T10061022
KRHI 251453Z AUTO VRB04KT 1 1/4SM -SN BR SCT005 OVC020 M01/M02 A2979 RMK AO2 SLP105 P0002 60007 T10111022 50004
KRHI 251424Z AUTO 36003KT 3/4SM -SN BR SCT005 OVC016 M01/M02 A2979 RMK AO2 P0001 T10111022
KRHI 251402Z AUTO VRB05KT 1/2SM SN FZFG FEW005 OVC012 M01/M02 A2979 RMK AO2 P0001 T10111022
KRHI 251353Z AUTO 36004KT 1/2SM SN FZFG VV010 M01/M02 A2979 RMK AO2 SLP106 P0003 T10111022
KRHI 251337Z AUTO 01004KT 3/4SM -SN BR FEW007 OVC013 M01/M02 A2979 RMK AO2 P0002 T10111022
KRHI 251328Z AUTO 35005KT 1 1/4SM -SN BR SCT007 OVC017 M01/M02 A2978 RMK AO2 P0001 T10111022
KRHI 251311Z AUTO 36006KT 1 1/2SM -SN BR BKN007 OVC021 M01/M02 A2978 RMK AO2 P0001 T10111022
KRHI 251304Z AUTO VRB03KT 1 3/4SM -SN BR SCT007 BKN010 OVC020 M01/M02 A2978 RMK AO2 P0000 T10111022
KRHI 251253Z AUTO 36003KT 1 3/4SM -SN BR SCT005 OVC018 M01/M02 A2978 RMK AO2 SLP102 P0002 T10111022
KRHI 251215Z AUTO 36005KT 1 1/4SM -SN BR FEW005 OVC017 M01/M02 A2977 RMK AO2 P0001 T10111022
KRHI 251153Z AUTO 35005KT 1SM -SN BR FEW007 OVC013 M01/M02 A2977 RMK AO2 SLP101 P0003 60007 70014 I6001 T10111022 11006 21011 53002
KRHI 251145Z AUTO 35004KT 1SM -SN BR SCT007 OVC014 M01/M02 A2977 RMK AO2 P0002 T10111022
KRHI 251114Z AUTO 35004KT 1 1/2SM -SN BR FEW007 SCT013 OVC024 M01/M02 A2977 RMK AO2 P0000 T10111022
KRHI 251053Z AUTO 34004KT 1SM -SN BR SCT007 OVC013 M01/M02 A2977 RMK AO2 SLP100 P0003 T10111022
KRHI 251013Z AUTO 01004KT 1 3/4SM -SN BR BKN008 BKN013 OVC029 M01/M02 A2976 RMK AO2 P0000 T10111022
KRHI 251002Z AUTO 05004KT 2 1/2SM -SN BR SCT008 BKN012 OVC031 M01/M02 A2976 RMK AO2 P0000 T10111022
KRHI 250953Z AUTO 04006KT 3SM -SN BR BKN008 BKN012 OVC033 M01/M02 A2977 RMK AO2 SNB26 SLP098 P0000 T10111022
KRHI 250938Z AUTO VRB03KT 2 1/2SM -SN BR BKN008 OVC012 M01/M02 A2977 RMK AO2 SNB26 P0000 T10111022
KRHI 250853Z AUTO 02004KT 4SM BR OVC007 M01/M02 A2977 RMK AO2 SNE0758 CIG 005V011 SLP101 P0000 60001 I1001 I3001 T10111022 56015
KRHI 250806Z AUTO VRB04KT 3SM BR BKN006 OVC010 M01/M02 A2979 RMK AO2 SNE0758 P0000 I1000 T10061017
KRHI 250753Z AUTO 02004KT 2 1/2SM -SN BR BKN006 BKN010 OVC033 M01/M02 A2979 RMK AO2 SLP105 P0000 T10061017
KRHI 250705Z AUTO 36004KT 2 1/2SM -SN BR BKN006 BKN010 OVC043 M01/M02 A2980 RMK AO2 P0000 T10061017
KRHI 250700Z AUTO 01004KT 3SM -SN BR SCT006 BKN010 OVC043 M01/M02 A2980 RMK AO2 P0000 T10061017
KRHI 250653Z AUTO 01004KT 3SM -SN BR BKN006 BKN036 OVC055 M01/M02 A2980 RMK AO2 SLP110 P0001 T10061017
KRHI 250630Z AUTO 02005KT 2SM -SN BR BKN006 BKN010 OVC032 M01/M02 A2981 RMK AO2 P0001 T10061017
KRHI 250605Z AUTO 01006KT 1 3/4SM -SN BR BKN008 BKN012 OVC017 M01/M02 A2982 RMK AO2 P0000 T10061017
KRHI 250553Z AUTO 02004KT 3SM -SN BR OVC008 M01/M02 A2982 RMK AO2 SLP116 P0001 60003 I6000 T10061017 10000 21006 400001017 56008
KRHI 250537Z AUTO 02005KT 3SM -SN BR SCT007 OVC011 M01/M02 A2982 RMK AO2 P0001 T10061017
KRHI 250533Z AUTO 02004KT 2 1/2SM -SN BR BKN007 OVC013 M01/M02 A2982 RMK AO2 P0001 T10061017
KRHI 250526Z AUTO 03005KT 2 1/2SM -SN BR SCT007 OVC011 M01/M02 A2982 RMK AO2 P0001 T10061017
KRHI 250453Z AUTO 02005KT 1 3/4SM -SN BR OVC008 M01/M02 A2982 RMK AO2 SNB32 CIG 005V013 SLP118 P0000 T10061017
KRHI 250353Z AUTO 03004KT 9SM OVC006 00/M02 A2984 RMK AO2 SNE0257 CIG 004V010 SLP123 P0000 T00001017
KRHI 250253Z AUTO 01006KT 5SM -SN BR OVC006 M01/M02 A2985 RMK AO2 SLP127 P0000 60002 I3000 T10061017 58012
KRHI 250233Z AUTO 03005KT 3SM -SN BR OVC005 M01/M02 A2985 RMK AO2 P0000 T10061017
KRHI 250153Z AUTO 03005KT 2SM -SN BR OVC005 M01/M01 A2987 RMK AO2 SLP135 P0001 T10061011
KRHI 250053Z AUTO 04004KT 1 1/2SM -SN BR OVC007 00/M01 A2988 RMK AO2 SNB17 CIG 004V010 SLP138 P0001 I1000 T00001011
KRHI 250049Z AUTO 04005KT 1 1/2SM -SN BR OVC007 00/M01 A2988 RMK AO2 SNB17 P0001 I1000
KRHI 250032Z AUTO 03004KT 2SM -SN BR OVC007 00/M01 A2989 RMK AO2 SNB17 P0001 I1000 T00001011
KRHI 242353Z AUTO 04005KT 4SM BR OVC006 00/M02 A2989 RMK AO2 SNE02B25E36 CIG 004V009 SLP140 P0000 60001 T00001017 10000 20000 55004
KRHI 242306Z AUTO 04004KT 4SM BR OVC006 00/M01 A2989 RMK AO2 SNE02 P0000 T00001011
KRHI 242253Z AUTO 05004KT 2SM -SN BR OVC006 00/M01 A2989 RMK AO2 CIG 004V010 SLP140 P0000 T00001011
KRHI 242211Z AUTO 06007KT 1 3/4SM -SN BR OVC006 00/M01 A2989 RMK AO2 P0000 T00001011
KRHI 242201Z AUTO 07005KT 4SM -SN BR OVC006 00/M02 A2989 RMK AO2 P0000 T00001017
KRHI 242153Z AUTO 06005KT 2 1/2SM -SN BR OVC006 00/M02 A2989 RMK AO2 SNE23B43 CIG 005V010 SLP142 P0000 T00001017